Time;durP1;ratioP1;P1;durP2;ratioP2;P2;SDS_P1;SDS_P2;PMS_P1;PMS_P2;Temp;Humidity;BMP_temperature;BMP_pressure;BME280_temperature;BME280_humidity;BME280_pressure;Samples;Min_cycle;Max_cycle;Signal;HPM_P1;HPM_P2
2023/05/22 00:01:31;;;;;;;15.40;10.20;;;;;;;;;;5064063;28;20061;-56
2023/05/22 00:03:57;;;;;;;16.90;10.75;;;;;;;;;;5063536;28;20921;-56
2023/05/22 00:06:24;;;;;;;18.90;10.20;;;;;;;;;;5062322;28;20422;-56
2023/05/22 00:08:51;;;;;;;17.38;13.68;;;;;;;;;;5064451;28;20511;-52
2023/05/22 00:11:17;;;;;;;19.42;11.40;;;;;;;;;;5064000;28;20057;-55
2023/05/22 00:13:43;;;;;;;19.73;11.65;;;;;;;;;;5064130;28;20059;-54
2023/05/22 00:16:10;;;;;;;19.80;12.80;;;;;;;;;;5060211;28;20049;-52
2023/05/22 00:18:37;;;;;;;19.98;15.43;;;;;;;;;;5050150;28;20462;-55
2023/05/22 00:21:03;;;;;;;17.95;12.95;;;;;;;;;;5062982;28;20053;-55
2023/05/22 00:23:29;;;;;;;18.33;11.57;;;;;;;;;;5061648;28;20080;-54
2023/05/22 00:25:56;;;;;;;15.40;10.85;;;;;;;;;;5062111;28;20134;-54
2023/05/22 00:28:22;;;;;;;17.42;13.00;;;;;;;;;;5064863;28;20523;-51
2023/05/22 00:30:49;;;;;;;20.83;16.33;;;;;;;;;;5063952;28;20530;-52
2023/05/22 00:33:15;;;;;;;21.23;15.68;;;;;;;;;;5063972;28;20062;-51
2023/05/22 00:35:41;;;;;;;27.13;17.98;;;;;;;;;;5063563;28;20136;-55
2023/05/22 00:38:08;;;;;;;21.88;15.48;;;;;;;;;;5062765;28;20392;-52
2023/05/22 00:40:34;;;;;;;21.35;13.60;;;;;;;;;;5058242;28;20095;-55
2023/05/22 00:43:07;;;;;;;22.83;14.18;;;;;;;;;;5062484;28;20131;-54
2023/05/22 00:45:33;;;;;;;24.85;16.08;;;;;;;;;;5064106;28;20509;-51
2023/05/22 00:47:59;;;;;;;21.77;12.77;;;;;;;;;;5053000;28;20050;-53
2023/05/22 00:50:26;;;;;;;22.85;13.88;;;;;;;;;;5063535;28;20064;-53
2023/05/22 00:52:52;;;;;;;19.20;14.23;;;;;;;;;;5062108;28;20089;-53
2023/05/22 00:55:19;;;;;;;18.98;12.25;;;;;;;;;;5064131;28;20136;-52
2023/05/22 00:57:45;;;;;;;18.77;12.70;;;;;;;;;;5062757;28;20053;-54
2023/05/22 01:00:12;;;;;;;18.45;12.30;;;;;;;;;;5062652;28;20832;-52
2023/05/22 01:02:41;;;;;;;24.80;14.05;;;;;;;;;;5063472;28;20103;-54
2023/05/22 01:05:10;;;;;;;19.23;14.18;;;;;;;;;;5062261;28;20739;-55
2023/05/22 01:07:36;;;;;;;23.73;12.40;;;;;;;;;;5063351;28;20096;-54
2023/05/22 01:10:06;;;;;;;21.48;13.38;;;;;;;;;;5062587;28;20119;-52
2023/05/22 01:12:35;;;;;;;20.08;13.98;;;;;;;;;;5063472;28;20172;-55
2023/05/22 01:15:28;;;;;;;21.05;12.55;;;;;;;;;;5061637;28;20072;-53
2023/05/22 01:18:03;;;;;;;18.23;13.30;;;;;;;;;;5050377;28;20053;-56
2023/05/22 01:20:29;;;;;;;;;;;;;;;;;;5058254;28;20812;-51
2023/05/22 01:22:57;;;;;;;21.15;12.63;;;;;;;;;;5061605;28;46885;-53
2023/05/22 01:25:27;;;;;;;18.63;13.27;;;;;;;;;;5062857;28;20453;-51
2023/05/22 01:28:12;;;;;;;17.05;11.77;;;;;;;;;;5062528;28;20049;-52
2023/05/22 01:30:44;;;;;;;20.02;12.70;;;;;;;;;;5058859;28;20057;-55
2023/05/22 01:33:13;;;;;;;17.85;11.95;;;;;;;;;;5061000;28;20084;-55
2023/05/22 01:35:40;;;;;;;19.17;11.95;;;;;;;;;;5063531;28;20104;-54
2023/05/22 01:38:07;;;;;;;18.30;12.65;;;;;;;;;;5062312;28;20048;-53
2023/05/22 01:40:34;;;;;;;20.25;13.35;;;;;;;;;;5060767;28;20323;-55
2023/05/22 01:43:00;;;;;;;18.17;12.20;;;;;;;;;;5061431;28;20600;-51
2023/05/22 01:45:27;;;;;;;20.83;11.77;;;;;;;;;;5063166;28;20053;-54
2023/05/22 01:47:53;;;;;;;15.38;11.20;;;;;;;;;;5062925;28;20060;-56
2023/05/22 01:50:20;;;;;;;17.73;11.85;;;;;;;;;;5062567;28;20556;-56
2023/05/22 01:52:55;;;;;;;22.55;12.55;;;;;;;;;;5062052;28;20136;-55
2023/05/22 01:55:26;;;;;;;20.30;12.65;;;;;;;;;;5053289;28;20092;-51
2023/05/22 01:57:58;;;;;;;18.20;11.98;;;;;;;;;;5061998;28;20057;-51
2023/05/22 02:00:25;;;;;;;15.07;11.77;;;;;;;;;;5062053;28;20786;-52
2023/05/22 02:03:15;;;;;;;17.92;11.95;;;;;;;;;;5061144;28;20506;-50
2023/05/22 02:05:43;;;;;;;17.85;12.18;;;;;;;;;;5057524;28;20409;-56
2023/05/22 02:08:11;;;;;;;17.55;12.02;;;;;;;;;;5062323;28;20057;-55
2023/05/22 02:10:37;;;;;;;14.98;12.20;;;;;;;;;;5062070;28;20092;-51
2023/05/22 02:13:04;;;;;;;19.15;11.48;;;;;;;;;;5062066;28;20053;-52
2023/05/22 02:15:32;;;;;;;18.70;11.50;;;;;;;;;;5061687;28;20056;-55
2023/05/22 02:17:59;;;;;;;17.35;11.90;;;;;;;;;;5059466;28;20053;-53
2023/05/22 02:20:25;;;;;;;18.25;11.77;;;;;;;;;;5043356;28;20100;-56
2023/05/22 02:22:51;;;;;;;20.95;13.07;;;;;;;;;;5059397;28;20507;-50
2023/05/22 02:25:18;;;;;;;17.35;12.45;;;;;;;;;;5064075;28;20092;-55
2023/05/22 02:27:46;;;;;;;18.40;12.38;;;;;;;;;;5065896;28;20057;-55
2023/05/22 02:30:13;;;;;;;20.40;12.15;;;;;;;;;;5065293;28;20049;-54
2023/05/22 02:32:40;;;;;;;20.13;13.18;;;;;;;;;;5061423;28;20061;-53
2023/05/22 02:35:07;;;;;;;21.17;13.30;;;;;;;;;;5049348;28;20128;-52
2023/05/22 02:37:33;;;;;;;19.02;12.43;;;;;;;;;;5065800;28;20048;-57
2023/05/22 02:39:59;;;;;;;17.58;13.02;;;;;;;;;;5065414;28;20576;-55
2023/05/22 02:42:26;;;;;;;22.02;13.40;;;;;;;;;;5065929;28;20145;-56
2023/05/22 02:44:52;;;;;;;20.27;13.98;;;;;;;;;;5065768;28;20057;-54
2023/05/22 02:47:18;;;;;;;19.10;13.43;;;;;;;;;;5065302;28;20525;-56
2023/05/22 02:49:45;;;;;;;19.83;13.85;;;;;;;;;;5065412;28;20784;-55
2023/05/22 02:52:12;;;;;;;26.40;14.82;;;;;;;;;;5065367;28;20057;-53
2023/05/22 02:54:38;;;;;;;20.73;13.55;;;;;;;;;;5064925;28;20056;-55
2023/05/22 02:57:04;;;;;;;25.35;14.77;;;;;;;;;;5064164;28;20087;-55
2023/05/22 02:59:31;;;;;;;23.02;14.63;;;;;;;;;;5065373;28;20053;-54
2023/05/22 03:01:57;;;;;;;20.00;12.95;;;;;;;;;;5064856;28;20094;-55
2023/05/22 03:04:24;;;;;;;22.50;13.32;;;;;;;;;;5065916;28;20053;-53
2023/05/22 03:06:50;;;;;;;21.42;13.82;;;;;;;;;;5065492;28;20132;-50
2023/05/22 03:09:19;;;;;;;19.63;13.82;;;;;;;;;;5065616;28;20053;-53
2023/05/22 03:11:45;;;;;;;17.23;12.52;;;;;;;;;;5066337;28;20570;-54
2023/05/22 03:14:11;;;;;;;19.30;13.93;;;;;;;;;;5064126;28;20544;-53
2023/05/22 03:16:38;;;;;;;18.80;13.48;;;;;;;;;;5053214;28;20062;-56
2023/05/22 03:19:11;;;;;;;22.02;14.77;;;;;;;;;;5061196;28;20142;-51
2023/05/22 03:21:39;;;;;;;21.15;13.63;;;;;;;;;;5065413;28;20045;-54
2023/05/22 03:24:06;;;;;;;19.70;13.15;;;;;;;;;;5063864;28;20107;-52
2023/05/22 03:26:33;;;;;;;22.00;11.88;;;;;;;;;;5064842;28;20053;-55
2023/05/22 03:28:59;;;;;;;20.80;13.07;;;;;;;;;;5062731;28;20081;-55
2023/05/22 03:31:26;;;;;;;19.38;13.57;;;;;;;;;;5065155;28;20053;-53
2023/05/22 03:33:53;;;;;;;18.67;13.15;;;;;;;;;;5065093;28;20068;-52
2023/05/22 03:36:20;;;;;;;20.80;13.90;;;;;;;;;;5065385;28;20099;-55
2023/05/22 03:38:46;;;;;;;18.52;12.77;;;;;;;;;;5062128;28;20069;-55
2023/05/22 03:41:13;;;;;;;21.58;13.02;;;;;;;;;;5062963;28;20152;-55
2023/05/22 03:43:39;;;;;;;20.88;13.18;;;;;;;;;;5065343;28;20053;-56
2023/05/22 03:46:10;;;;;;;42.67;13.75;;;;;;;;;;5065354;28;20148;-55
2023/05/22 03:48:37;;;;;;;20.55;14.07;;;;;;;;;;5066959;28;20094;-55
2023/05/22 03:51:03;;;;;;;18.27;12.20;;;;;;;;;;5065684;28;20521;-53
2023/05/22 03:53:29;;;;;;;20.40;14.25;;;;;;;;;;5065546;28;20143;-53
2023/05/22 03:55:59;;;;;;;16.27;11.80;;;;;;;;;;5065613;28;20501;-55
2023/05/22 03:58:25;;;;;;;19.70;12.82;;;;;;;;;;5065252;28;20063;-54
2023/05/22 04:00:57;;;;;;;18.55;13.05;;;;;;;;;;5065226;28;20474;-55
2023/05/22 04:03:24;;;;;;;20.00;12.57;;;;;;;;;;5065362;28;20087;-52
2023/05/22 04:05:50;;;;;;;17.20;12.60;;;;;;;;;;5065506;28;20509;-51
2023/05/22 04:08:17;;;;;;;18.50;12.60;;;;;;;;;;5064864;28;20049;-55
2023/05/22 04:10:45;;;;;;;15.63;12.25;;;;;;;;;;5063966;28;20059;-53
2023/05/22 04:13:12;;;;;;;17.80;13.10;;;;;;;;;;5064490;28;20087;-52
2023/05/22 04:15:40;;;;;;;17.63;12.35;;;;;;;;;;5064954;28;20045;-53
2023/05/22 04:18:07;;;;;;;17.15;12.43;;;;;;;;;;5064765;28;20573;-52
2023/05/22 04:20:33;;;;;;;18.15;13.30;;;;;;;;;;5064681;28;20064;-52
2023/05/22 04:23:00;;;;;;;16.63;12.30;;;;;;;;;;5063844;28;20107;-52
2023/05/22 04:25:26;;;;;;;17.85;12.90;;;;;;;;;;5063857;28;20132;-52
2023/05/22 04:27:53;;;;;;;16.83;11.93;;;;;;;;;;5064535;28;20049;-53
2023/05/22 04:30:20;;;;;;;16.83;12.40;;;;;;;;;;5065080;28;20056;-55
2023/05/22 04:32:47;;;;;;;15.60;12.27;;;;;;;;;;5064453;28;20057;-54
2023/05/22 04:35:17;;;;;;;17.73;13.00;;;;;;;;;;5062156;28;20049;-51
2023/05/22 04:37:47;;;;;;;19.45;13.43;;;;;;;;;;5064321;28;20061;-53
2023/05/22 04:40:14;;;;;;;15.40;11.55;;;;;;;;;;5063388;28;20482;-56
2023/05/22 04:42:41;;;;;;;19.92;14.23;;;;;;;;;;5064466;28;20122;-55
2023/05/22 04:45:08;;;;;;;21.30;14.00;;;;;;;;;;5062447;28;20119;-53
2023/05/22 04:47:37;;;;;;;18.50;13.50;;;;;;;;;;5063953;28;20088;-52
2023/05/22 04:50:03;;;;;;;21.67;14.45;;;;;;;;;;5064631;28;20091;-56
2023/05/22 04:52:30;;;;;;;22.90;14.50;;;;;;;;;;5064340;28;20060;-54
2023/05/22 04:54:56;;;;;;;21.48;14.18;;;;;;;;;;5064467;28;20049;-56
2023/05/22 04:57:26;;;;;;;20.52;14.27;;;;;;;;;;5064152;28;20057;-50
2023/05/22 04:59:53;;;;;;;22.92;15.23;;;;;;;;;;5063934;28;20548;-51
2023/05/22 05:02:19;;;;;;;22.58;14.15;;;;;;;;;;5063378;28;20099;-56
2023/05/22 05:04:46;;;;;;;25.67;15.88;;;;;;;;;;5061502;28;20131;-55
2023/05/22 05:07:16;;;;;;;19.85;14.18;;;;;;;;;;5063560;28;20095;-50
2023/05/22 05:09:42;;;;;;;24.30;15.68;;;;;;;;;;5057285;28;20061;-54
2023/05/22 05:12:09;;;;;;;24.67;16.48;;;;;;;;;;5061698;28;20056;-54
2023/05/22 05:14:35;;;;;;;23.73;13.63;;;;;;;;;;5059138;28;20790;-55
2023/05/22 05:17:01;;;;;;;23.38;15.57;;;;;;;;;;5062740;28;20053;-51
2023/05/22 05:19:28;;;;;;;23.80;14.38;;;;;;;;;;5063064;28;20052;-54
2023/05/22 05:21:54;;;;;;;24.23;14.80;;;;;;;;;;5063297;28;20503;-51
2023/05/22 05:24:21;;;;;;;23.23;14.75;;;;;;;;;;5062283;28;20142;-52
2023/05/22 05:26:48;;;;;;;19.80;14.02;;;;;;;;;;5061272;28;20088;-53
2023/05/22 05:29:15;;;;;;;24.27;14.50;;;;;;;;;;5062934;28;20168;-52
2023/05/22 05:31:41;;;;;;;20.75;14.85;;;;;;;;;;5062337;28;20061;-53
2023/05/22 05:34:08;;;;;;;19.00;12.32;;;;;;;;;;5047248;28;20057;-53
2023/05/22 05:36:34;;;;;;;18.40;13.38;;;;;;;;;;5061867;28;20056;-54
2023/05/22 05:39:00;;;;;;;19.35;14.10;;;;;;;;;;5062539;28;20053;-54
2023/05/22 05:41:27;;;;;;;22.23;13.55;;;;;;;;;;5062239;28;20057;-55
2023/05/22 05:43:56;;;;;;;16.30;12.80;;;;;;;;;;5063120;28;20076;-56
2023/05/22 05:46:22;;;;;;;21.90;14.38;;;;;;;;;;5062229;28;20055;-55
2023/05/22 05:48:49;;;;;;;20.02;13.55;;;;;;;;;;5054870;28;20057;-55
2023/05/22 05:51:15;;;;;;;26.95;14.88;;;;;;;;;;5062593;28;20123;-52
2023/05/22 05:53:42;;;;;;;22.25;14.65;;;;;;;;;;5063360;28;20091;-55
2023/05/22 05:56:08;;;;;;;19.02;13.95;;;;;;;;;;5062076;28;20585;-52
2023/05/22 05:58:35;;;;;;;28.02;15.07;;;;;;;;;;5061509;28;20167;-55
2023/05/22 06:01:01;;;;;;;17.80;13.43;;;;;;;;;;5061642;28;20049;-51
2023/05/22 06:03:28;;;;;;;19.40;14.15;;;;;;;;;;5062556;28;20592;-55
2023/05/22 06:05:56;;;;;;;20.73;14.60;;;;;;;;;;5062809;28;20059;-51
2023/05/22 06:08:22;;;;;;;25.73;15.68;;;;;;;;;;5061125;28;20119;-57
2023/05/22 06:10:49;;;;;;;20.42;15.68;;;;;;;;;;5061306;28;20064;-56
2023/05/22 06:13:15;;;;;;;25.30;15.65;;;;;;;;;;5062325;28;20540;-53
2023/05/22 06:15:42;;;;;;;21.92;15.00;;;;;;;;;;5061835;28;20140;-51
2023/05/22 06:18:08;;;;;;;22.75;15.05;;;;;;;;;;5062837;28;20063;-54
2023/05/22 06:20:35;;;;;;;22.70;15.38;;;;;;;;;;5062194;28;20057;-54
2023/05/22 06:23:01;;;;;;;19.65;14.77;;;;;;;;;;5061816;28;20131;-50
2023/05/22 06:25:28;;;;;;;24.05;15.93;;;;;;;;;;5063199;28;20053;-55
2023/05/22 06:27:55;;;;;;;21.95;15.38;;;;;;;;;;5061343;28;20099;-55
2023/05/22 06:30:21;;;;;;;24.98;15.55;;;;;;;;;;5059440;28;20084;-54
2023/05/22 06:33:08;;;;;;;22.85;15.57;;;;;;;;;;5042933;28;20423;-57
2023/05/22 06:35:35;;;;;;;24.40;15.98;;;;;;;;;;5058696;28;20055;-56
2023/05/22 06:38:01;;;;;;;22.95;15.63;;;;;;;;;;5059375;28;20076;-53
2023/05/22 06:40:28;;;;;;;24.92;15.20;;;;;;;;;;5061512;28;20057;-56
2023/05/22 06:42:55;;;;;;;23.60;15.73;;;;;;;;;;5061663;28;20116;-55
2023/05/22 06:45:22;;;;;;;22.48;15.18;;;;;;;;;;5062260;28;20064;-55
2023/05/22 06:47:52;;;;;;;19.70;14.80;;;;;;;;;;5060311;28;20049;-56
2023/05/22 06:50:19;;;;;;;22.17;15.10;;;;;;;;;;5051485;28;20060;-55
2023/05/22 06:52:46;;;;;;;20.73;14.70;;;;;;;;;;5059906;28;20134;-55
2023/05/22 06:55:12;;;;;;;22.85;15.45;;;;;;;;;;5061787;28;20041;-52
2023/05/22 06:57:38;;;;;;;22.60;14.20;;;;;;;;;;5062394;28;20057;-55
2023/05/22 07:00:10;;;;;;;21.80;15.02;;;;;;;;;;5049405;28;20052;-53
2023/05/22 07:02:37;;;;;;;20.30;14.63;;;;;;;;;;5062610;28;20481;-53
2023/05/22 07:05:03;;;;;;;20.25;14.25;;;;;;;;;;5062421;28;20513;-53
2023/05/22 07:07:30;;;;;;;21.35;14.40;;;;;;;;;;5062720;28;20046;-56
2023/05/22 07:09:56;;;;;;;20.02;14.55;;;;;;;;;;5063369;28;20064;-51
2023/05/22 07:12:25;;;;;;;20.80;14.35;;;;;;;;;;5063873;28;20395;-55
2023/05/22 07:14:51;;;;;;;20.10;13.45;;;;;;;;;;5066076;28;20057;-53
2023/05/22 07:17:19;;;;;;;20.58;14.65;;;;;;;;;;5051479;28;20084;-53
2023/05/22 07:19:46;;;;;;;21.33;14.55;;;;;;;;;;5064761;28;20388;-56
2023/05/22 07:22:12;;;;;;;21.88;16.17;;;;;;;;;;5063849;28;20055;-56
2023/05/22 07:24:38;;;;;;;22.52;14.75;;;;;;;;;;5064478;28;20077;-56
2023/05/22 07:27:05;;;;;;;20.55;14.98;;;;;;;;;;5063674;28;20135;-56
2023/05/22 07:29:31;;;;;;;21.13;15.07;;;;;;;;;;5066283;28;20053;-54
2023/05/22 07:31:58;;;;;;;20.17;14.80;;;;;;;;;;5046444;28;20562;-51
2023/05/22 07:34:30;;;;;;;24.55;15.18;;;;;;;;;;5045629;28;20054;-57
2023/05/22 07:36:57;;;;;;;18.48;14.40;;;;;;;;;;5045030;28;20053;-53
2023/05/22 07:39:23;;;;;;;21.45;14.90;;;;;;;;;;5044147;28;20054;-56
2023/05/22 07:41:49;;;;;;;18.33;14.18;;;;;;;;;;5044343;28;20140;-54
2023/05/22 07:44:16;;;;;;;19.50;14.48;;;;;;;;;;5045315;28;20155;-52
2023/05/22 07:46:42;;;;;;;19.92;14.77;;;;;;;;;;5045656;28;20081;-55
2023/05/22 07:49:09;;;;;;;21.08;14.85;;;;;;;;;;5045115;28;20131;-56
2023/05/22 07:51:36;;;;;;;19.98;14.60;;;;;;;;;;5044555;28;20503;-54
2023/05/22 07:54:02;;;;;;;21.42;14.95;;;;;;;;;;5045369;28;20136;-56
2023/05/22 07:56:29;;;;;;;18.58;14.20;;;;;;;;;;5045065;28;20057;-56
2023/05/22 07:58:55;;;;;;;23.25;15.88;;;;;;;;;;5045070;28;20859;-55
2023/05/22 08:01:22;;;;;;;22.95;16.77;;;;;;;;;;5045132;28;20081;-54
2023/05/22 08:03:48;;;;;;;20.45;14.93;;;;;;;;;;5045210;28;20667;-51
2023/05/22 08:06:16;;;;;;;19.45;14.23;;;;;;;;;;5043243;28;20049;-53
2023/05/22 08:08:42;;;;;;;20.00;14.70;;;;;;;;;;5044593;28;20057;-55
2023/05/22 08:11:09;;;;;;;19.73;13.95;;;;;;;;;;5044653;28;20088;-52
2023/05/22 08:13:37;;;;;;;19.35;14.15;;;;;;;;;;5044914;28;20569;-54
2023/05/22 08:16:04;;;;;;;17.95;14.20;;;;;;;;;;5044359;28;20107;-53
2023/05/22 08:18:30;;;;;;;19.10;14.18;;;;;;;;;;5044517;28;20119;-50
2023/05/22 08:20:58;;;;;;;16.80;13.27;;;;;;;;;;5046922;28;20111;-56
2023/05/22 08:23:24;;;;;;;18.77;13.85;;;;;;;;;;5057604;28;20076;-57
2023/05/22 08:25:51;;;;;;;19.95;14.15;;;;;;;;;;5063044;28;20092;-54
2023/05/22 08:28:17;;;;;;;17.77;13.77;;;;;;;;;;5065076;28;20443;-53
2023/05/22 08:30:44;;;;;;;18.60;14.10;;;;;;;;;;5064414;28;20429;-52
2023/05/22 08:33:10;;;;;;;17.67;13.13;;;;;;;;;;5064299;28;20060;-58
2023/05/22 08:35:37;;;;;;;16.92;13.45;;;;;;;;;;5064475;28;20152;-57
2023/05/22 08:38:04;;;;;;;20.30;13.80;;;;;;;;;;5064769;28;20580;-57
2023/05/22 08:40:33;;;;;;;18.42;14.70;;;;;;;;;;5062344;28;20111;-57
2023/05/22 08:42:59;;;;;;;19.73;13.68;;;;;;;;;;5064404;28;20153;-56
2023/05/22 08:45:28;;;;;;;18.60;14.13;;;;;;;;;;5064347;28;20126;-57
2023/05/22 08:47:56;;;;;;;17.95;13.85;;;;;;;;;;5064031;28;20053;-57
2023/05/22 08:50:23;;;;;;;20.38;13.25;;;;;;;;;;5065017;28;20049;-54
2023/05/22 08:52:50;;;;;;;16.80;12.80;;;;;;;;;;5064487;28;20095;-58
2023/05/22 08:55:18;;;;;;;16.25;12.38;;;;;;;;;;5064070;28;20526;-57
2023/05/22 08:57:45;;;;;;;15.63;12.43;;;;;;;;;;5057612;28;20064;-56
2023/05/22 09:00:11;;;;;;;15.10;12.40;;;;;;;;;;5050135;28;20095;-57
2023/05/22 09:02:38;;;;;;;19.63;12.68;;;;;;;;;;5063457;28;20142;-55
2023/05/22 09:05:05;;;;;;;16.10;12.73;;;;;;;;;;5062321;28;20461;-53
2023/05/22 09:07:32;;;;;;;18.15;13.75;;;;;;;;;;5063590;28;20135;-55
2023/05/22 09:09:58;;;;;;;18.23;13.30;;;;;;;;;;5047399;28;20055;-58
2023/05/22 09:12:25;;;;;;;21.55;15.85;;;;;;;;;;5044242;28;20053;-56
2023/05/22 09:14:52;;;;;;;21.13;14.25;;;;;;;;;;5044141;28;20064;-59
2023/05/22 09:17:20;;;;;;;16.85;13.35;;;;;;;;;;5043683;28;20049;-58
2023/05/22 09:19:46;;;;;;;15.52;13.13;;;;;;;;;;5044118;28;20054;-58
2023/05/22 09:22:13;;;;;;;18.08;14.13;;;;;;;;;;5047609;28;20064;-58
2023/05/22 09:24:41;;;;;;;21.38;16.58;;;;;;;;;;5063214;28;20057;-58
2023/05/22 09:27:08;;;;;;;18.38;14.63;;;;;;;;;;5062340;28;20597;-58
2023/05/22 09:29:51;;;;;;;17.20;14.73;;;;;;;;;;5063773;28;20052;-59
2023/05/22 09:32:17;;;;;;;18.65;14.90;;;;;;;;;;5065376;28;20045;-59
2023/05/22 09:34:47;;;;;;;18.45;14.15;;;;;;;;;;5063318;28;20562;-59
2023/05/22 09:37:14;;;;;;;15.50;12.10;;;;;;;;;;5063524;28;20514;-59
2023/05/22 09:39:44;;;;;;;16.10;11.45;;;;;;;;;;5063288;28;20134;-58
2023/05/22 09:42:11;;;;;;;15.55;12.13;;;;;;;;;;5063475;28;20064;-59
2023/05/22 09:44:38;;;;;;;16.10;13.93;;;;;;;;;;5063109;28;20606;-59
2023/05/22 09:47:08;;;;;;;18.48;13.63;;;;;;;;;;5063301;28;20111;-59
2023/05/22 09:49:35;;;;;;;13.50;11.88;;;;;;;;;;5063344;28;20132;-56
2023/05/22 09:52:03;;;;;;;13.38;11.38;;;;;;;;;;5063527;28;20135;-60
2023/05/22 09:54:32;;;;;;;13.45;11.40;;;;;;;;;;5063286;28;20483;-59
2023/05/22 09:56:59;;;;;;;13.90;11.43;;;;;;;;;;5063401;28;20065;-59
2023/05/22 09:59:28;;;;;;;14.68;12.73;;;;;;;;;;5061309;28;20049;-59
2023/05/22 10:01:55;;;;;;;13.98;11.38;;;;;;;;;;5057568;28;20053;-59
2023/05/22 10:04:22;;;;;;;12.85;11.13;;;;;;;;;;5063073;28;20067;-57
2023/05/22 10:06:50;;;;;;;11.75;10.50;;;;;;;;;;5056002;28;20057;-59
2023/05/22 10:09:17;;;;;;;13.35;11.07;;;;;;;;;;5062119;28;20055;-59
2023/05/22 10:11:45;;;;;;;14.30;10.60;;;;;;;;;;5060899;28;20056;-57
2023/05/22 10:14:11;;;;;;;12.77;11.38;;;;;;;;;;5063130;28;20055;-55
2023/05/22 10:16:38;;;;;;;13.18;10.60;;;;;;;;;;5062628;28;20510;-57
2023/05/22 10:19:05;;;;;;;11.50;10.30;;;;;;;;;;5062188;28;20085;-57
2023/05/22 10:21:35;;;;;;;10.55;9.43;;;;;;;;;;5062066;28;20049;-57
2023/05/22 10:24:02;;;;;;;10.32;9.32;;;;;;;;;;5058270;28;20145;-58
2023/05/22 10:26:28;;;;;;;12.20;10.02;;;;;;;;;;5062990;28;20499;-58
2023/05/22 10:29:06;;;;;;;11.35;9.93;;;;;;;;;;5063252;28;20590;-58
2023/05/22 10:31:41;;;;;;;10.63;9.27;;;;;;;;;;5060045;28;20163;-59
2023/05/22 10:34:07;;;;;;;;;;;;;;;;;;5062679;28;20131;-59
2023/05/22 10:36:43;;;;;;;13.40;10.10;;;;;;;;;;5094326;28;45736;-58
2023/05/22 10:39:27;;;;;;;11.10;9.15;;;;;;;;;;5062401;28;20053;-59
2023/05/22 10:41:53;;;;;;;13.30;9.82;;;;;;;;;;5062724;28;20093;-59
2023/05/22 10:44:20;;;;;;;11.77;10.13;;;;;;;;;;5062075;28;20092;-58
2023/05/22 10:46:50;;;;;;;10.30;9.20;;;;;;;;;;5064581;28;20057;-57
2023/05/22 10:49:20;;;;;;;9.82;8.02;;;;;;;;;;5065889;28;20494;-55
2023/05/22 10:51:46;;;;;;;10.77;7.72;;;;;;;;;;5066094;28;20495;-56
2023/05/22 10:54:13;;;;;;;11.00;8.02;;;;;;;;;;5065958;28;20061;-55
2023/05/22 10:56:40;;;;;;;9.85;7.85;;;;;;;;;;5066229;28;20057;-56
2023/05/22 10:59:06;;;;;;;10.93;7.63;;;;;;;;;;5065361;28;20057;-55
2023/05/22 11:01:36;;;;;;;8.85;7.32;;;;;;;;;;5065924;28;20580;-55
2023/05/22 11:04:03;;;;;;;7.93;7.00;;;;;;;;;;5065736;28;20049;-56
2023/05/22 11:06:35;;;;;;;9.48;7.13;;;;;;;;;;5065886;28;20051;-56
2023/05/22 11:09:17;;;;;;;9.27;7.57;;;;;;;;;;5065585;28;20527;-57
2023/05/22 11:12:07;;;;;;;7.80;6.50;;;;;;;;;;5066183;28;20053;-57
2023/05/22 11:14:34;;;;;;;6.43;5.78;;;;;;;;;;5065266;28;20053;-54
2023/05/22 11:17:01;;;;;;;6.57;5.35;;;;;;;;;;5065765;28;20053;-57
2023/05/22 11:19:27;;;;;;;6.47;4.97;;;;;;;;;;5065903;28;20049;-56
2023/05/22 11:21:58;;;;;;;8.55;6.25;;;;;;;;;;5066021;28;20089;-57
2023/05/22 11:24:25;;;;;;;7.22;6.53;;;;;;;;;;5065978;28;20463;-56
2023/05/22 11:27:03;;;;;;;10.80;8.63;;;;;;;;;;5065836;28;20079;-57
2023/05/22 11:29:30;;;;;;;11.32;8.10;;;;;;;;;;5064615;28;20077;-56
2023/05/22 11:32:00;;;;;;;10.80;8.48;;;;;;;;;;5066190;28;20096;-57
2023/05/22 11:34:26;;;;;;;11.50;8.43;;;;;;;;;;5065597;28;20164;-57
2023/05/22 11:36:56;;;;;;;11.27;9.10;;;;;;;;;;5065576;28;20052;-57
2023/05/22 11:39:23;;;;;;;10.40;8.85;;;;;;;;;;5065408;28;20136;-57
2023/05/22 11:41:49;;;;;;;9.23;8.00;;;;;;;;;;5064717;28;20061;-57
2023/05/22 11:44:16;;;;;;;9.88;8.02;;;;;;;;;;5065485;28;20092;-55
2023/05/22 11:46:43;;;;;;;10.88;8.02;;;;;;;;;;5065639;28;20933;-53
2023/05/22 11:49:12;;;;;;;8.38;6.88;;;;;;;;;;5065446;28;20176;-57
2023/05/22 11:51:39;;;;;;;9.40;6.75;;;;;;;;;;5065706;28;20124;-55
2023/05/22 11:54:06;;;;;;;10.55;7.65;;;;;;;;;;5065194;28;20179;-55
2023/05/22 11:56:32;;;;;;;7.72;6.93;;;;;;;;;;5064948;28;20526;-56
2023/05/22 11:59:00;;;;;;;7.68;6.47;;;;;;;;;;5063889;28;20049;-56
2023/05/22 12:01:26;;;;;;;9.45;7.25;;;;;;;;;;5065411;28;20530;-57
2023/05/22 12:03:53;;;;;;;8.00;6.85;;;;;;;;;;5065262;28;20064;-56
2023/05/22 12:06:20;;;;;;;8.98;7.43;;;;;;;;;;5065103;28;20055;-57
2023/05/22 12:08:46;;;;;;;7.72;6.78;;;;;;;;;;5065326;28;20256;-55
2023/05/22 12:11:13;;;;;;;8.00;6.68;;;;;;;;;;5064143;28;20087;-55
2023/05/22 12:13:40;;;;;;;7.70;6.90;;;;;;;;;;5064827;28;20057;-53
2023/05/22 12:16:20;;;;;;;8.75;7.00;;;;;;;;;;5065199;28;20052;-56
2023/05/22 12:18:50;;;;;;;8.07;6.07;;;;;;;;;;5064754;28;20056;-55
2023/05/22 12:21:17;;;;;;;7.22;6.47;;;;;;;;;;5064744;28;20111;-54
2023/05/22 12:23:50;;;;;;;7.90;6.20;;;;;;;;;;5064130;28;20139;-56
2023/05/22 12:26:16;;;;;;;6.78;5.60;;;;;;;;;;5064622;28;20049;-56
2023/05/22 12:28:43;;;;;;;8.13;6.07;;;;;;;;;;5065142;28;20057;-56
2023/05/22 12:31:10;;;;;;;8.23;6.25;;;;;;;;;;5064636;28;20172;-56
2023/05/22 12:33:38;;;;;;;7.45;5.45;;;;;;;;;;5064975;28;20045;-54
2023/05/22 12:36:08;;;;;;;7.50;6.10;;;;;;;;;;5064077;28;20107;-56
2023/05/22 12:38:36;;;;;;;7.50;5.85;;;;;;;;;;5064727;28;20052;-54
2023/05/22 12:41:02;;;;;;;8.48;6.07;;;;;;;;;;5063333;28;20444;-55
2023/05/22 12:43:29;;;;;;;7.53;6.13;;;;;;;;;;5064527;28;20148;-57
2023/05/22 12:45:55;;;;;;;8.07;7.28;;;;;;;;;;5064590;28;20073;-55
2023/05/22 12:48:21;;;;;;;8.10;7.05;;;;;;;;;;5063961;28;20510;-57
2023/05/22 12:50:48;;;;;;;8.45;7.15;;;;;;;;;;5064436;28;20080;-55
2023/05/22 12:53:14;;;;;;;13.48;7.35;;;;;;;;;;5064244;28;20083;-55
2023/05/22 12:55:41;;;;;;;11.43;7.35;;;;;;;;;;5063889;28;20103;-54
2023/05/22 12:58:08;;;;;;;8.75;7.30;;;;;;;;;;5064082;28;20057;-54
2023/05/22 13:00:34;;;;;;;10.27;7.88;;;;;;;;;;5064386;28;20045;-55
2023/05/22 13:03:00;;;;;;;10.52;8.05;;;;;;;;;;5064066;28;20080;-56
2023/05/22 13:05:27;;;;;;;12.07;8.40;;;;;;;;;;5064416;28;20053;-56
2023/05/22 13:07:53;;;;;;;9.82;7.93;;;;;;;;;;5064288;28;20063;-57
2023/05/22 13:10:20;;;;;;;10.45;7.10;;;;;;;;;;5063096;28;20059;-56
2023/05/22 13:12:49;;;;;;;10.68;6.45;;;;;;;;;;5063838;28;20053;-57
2023/05/22 13:15:16;;;;;;;10.55;6.53;;;;;;;;;;5063813;28;20490;-57
2023/05/22 13:17:43;;;;;;;8.27;6.85;;;;;;;;;;5063913;28;20048;-54
2023/05/22 13:20:09;;;;;;;7.75;6.18;;;;;;;;;;5063739;28;20145;-56
2023/05/22 13:22:36;;;;;;;9.80;6.22;;;;;;;;;;5064364;28;20060;-57
2023/05/22 13:25:02;;;;;;;10.48;5.90;;;;;;;;;;5063475;28;20148;-52
2023/05/22 13:27:29;;;;;;;12.35;6.10;;;;;;;;;;5064422;28;20508;-56
2023/05/22 13:29:59;;;;;;;6.25;5.30;;;;;;;;;;5064064;28;20084;-56
2023/05/22 13:32:25;;;;;;;6.45;5.38;;;;;;;;;;5064357;28;20049;-55
2023/05/22 13:34:52;;;;;;;7.60;5.90;;;;;;;;;;5063860;28;20512;-57
2023/05/22 13:37:18;;;;;;;9.75;5.28;;;;;;;;;;5062843;28;20134;-54
2023/05/22 13:39:44;;;;;;;9.60;5.18;;;;;;;;;;5062010;28;20135;-57
2023/05/22 13:42:11;;;;;;;5.93;5.00;;;;;;;;;;5063146;28;20545;-57
2023/05/22 13:44:37;;;;;;;6.53;5.00;;;;;;;;;;5062282;28;20053;-54
2023/05/22 13:47:04;;;;;;;6.68;5.18;;;;;;;;;;5061640;28;20158;-55
2023/05/22 13:49:30;;;;;;;6.10;5.50;;;;;;;;;;5063867;28;20143;-56
2023/05/22 13:51:57;;;;;;;5.82;5.22;;;;;;;;;;5062786;28;20405;-57
2023/05/22 13:54:23;;;;;;;5.57;4.90;;;;;;;;;;5063211;28;20059;-56
2023/05/22 13:56:49;;;;;;;4.50;3.90;;;;;;;;;;5063458;28;20049;-51
2023/05/22 13:59:16;;;;;;;5.65;4.60;;;;;;;;;;5063241;28;20571;-54
2023/05/22 14:01:42;;;;;;;5.13;4.00;;;;;;;;;;5062745;28;20143;-54
2023/05/22 14:04:08;;;;;;;4.95;4.43;;;;;;;;;;5053371;28;20058;-51
2023/05/22 14:06:35;;;;;;;6.78;4.90;;;;;;;;;;5043220;28;20165;-53
2023/05/22 14:09:02;;;;;;;5.07;4.57;;;;;;;;;;5042541;28;20132;-53
2023/05/22 14:11:28;;;;;;;6.50;3.97;;;;;;;;;;5058666;28;20554;-54
2023/05/22 14:13:55;;;;;;;4.30;3.90;;;;;;;;;;5063194;28;20416;-51
2023/05/22 14:16:21;;;;;;;5.63;4.15;;;;;;;;;;5063600;28;20156;-52
2023/05/22 14:18:48;;;;;;;4.75;3.60;;;;;;;;;;5063237;28;20052;-53
2023/05/22 14:21:14;;;;;;;6.65;4.10;;;;;;;;;;5052926;28;20083;-51
2023/05/22 14:23:41;;;;;;;7.20;4.60;;;;;;;;;;5062381;28;20052;-55
2023/05/22 14:26:07;;;;;;;5.80;4.18;;;;;;;;;;5066510;28;20534;-54